Time,TemperatureF,DewpointF,PressureIn,WindDirection,WindDirectionDegrees,WindSpeedMPH,WindSpeedGustMPH,Humidity,HourlyPrecipIn,Conditions,Clouds,dailyrainin,SolarRadiationWatts/m^2,SoftwareType,DateUTC
2013-04-30 00:12:00,65.2,64.0,29.89,NNE,13,0.0,1.0,95,0.00,,,0.00,0,weatherlink.com 1.10,2013-04-30 04:12:00,
2013-04-30 00:27:00,65.2,64.0,29.89,NNE,13,0.0,1.0,95,0.00,,,0.00,0,weatherlink.com 1.10,2013-04-30 04:27:00,
2013-04-30 00:42:00,65.0,64.0,29.88,NNE,13,0.0,0.0,95,0.00,,,0.00,0,weatherlink.com 1.10,2013-04-30 04:42:00,
2013-04-30 00:57:00,64.7,63.0,29.88,NNE,13,0.0,0.0,95,0.00,,,0.00,0,weatherlink.com 1.10,2013-04-30 04:57:00,
2013-04-30 01:12:00,64.7,63.0,29.88,NNE,13,0.0,0.0,95,0.00,,,0.00,0,weatherlink.com 1.10,2013-04-30 05:12:00,
2013-04-30 01:27:00,64.3,63.0,29.88,NNE,13,0.0,1.0,95,0.00,,,0.00,0,weatherlink.com 1.10,2013-04-30 05:27:00,
2013-04-30 01:42:00,64.3,63.0,29.87,NNE,13,0.0,0.0,95,0.00,,,0.00,0,weatherlink.com 1.10,2013-04-30 05:42:00,
2013-04-30 01:57:00,64.3,63.0,29.87,NNE,13,0.0,0.0,96,0.00,,,0.00,0,weatherlink.com 1.10,2013-04-30 05:57:00,
2013-04-30 02:12:00,64.3,63.0,29.87,NNE,13,0.0,0.0,96,0.00,,,0.00,0,weatherlink.com 1.10,2013-04-30 06:12:00,
2013-04-30 02:27:00,64.3,63.0,29.87,NNE,13,0.0,0.0,96,0.00,,,0.00,0,weatherlink.com 1.10,2013-04-30 06:27:00,
2013-04-30 02:42:00,64.3,63.0,29.87,NNE,13,0.0,1.0,96,0.00,,,0.00,0,weatherlink.com 1.10,2013-04-30 06:42:00,
2013-04-30 02:56:00,64.5,63.0,29.88,NNE,13,0.0,0.0,96,0.00,,,0.00,0,weatherlink.com 1.10,2013-04-30 06:56:00,
2013-04-30 03:12:00,64.5,63.0,29.88,NNE,13,0.0,0.0,96,0.00,,,0.00,0,weatherlink.com 1.10,2013-04-30 07:12:00,
2013-04-30 03:27:00,64.3,63.0,29.88,NNE,13,0.0,0.0,96,0.00,,,0.00,0,weatherlink.com 1.10,2013-04-30 07:27:00,
2013-04-30 03:43:00,64.3,63.0,29.88,NNE,13,0.0,0.0,96,0.00,,,0.00,0,weatherlink.com 1.10,2013-04-30 07:43:00,
2013-04-30 03:58:00,64.2,63.0,29.89,NNE,13,0.0,0.0,96,0.00,,,0.00,0,weatherlink.com 1.10,2013-04-30 07:58:00,
2013-04-30 04:13:00,64.3,63.0,29.89,NNE,13,0.0,0.0,96,0.00,,,0.00,0,weatherlink.com 1.10,2013-04-30 08:13:00,
2013-04-30 04:28:00,64.3,63.0,29.89,NNE,13,0.0,0.0,96,0.00,,,0.00,0,weatherlink.com 1.10,2013-04-30 08:28:00,
2013-04-30 04:43:00,64.3,63.0,29.90,NNE,13,0.0,0.0,96,0.00,,,0.00,0,weatherlink.com 1.10,2013-04-30 08:43:00,
2013-04-30 04:58:00,64.5,64.0,29.89,NNE,13,0.0,0.0,97,0.00,,,0.00,0,weatherlink.com 1.10,2013-04-30 08:58:00,
2013-04-30 05:13:00,64.5,64.0,29.89,NNE,13,0.0,0.0,97,0.00,,,0.00,0,weatherlink.com 1.10,2013-04-30 09:13:00,
2013-04-30 05:28:00,64.5,64.0,29.89,NNE,13,0.0,0.0,97,0.00,,,0.00,0,weatherlink.com 1.10,2013-04-30 09:28:00,
2013-04-30 05:43:00,64.5,64.0,29.88,NNE,13,0.0,0.0,97,0.00,,,0.00,0,weatherlink.com 1.10,2013-04-30 09:43:00,
2013-04-30 05:58:00,64.7,64.0,29.88,NNE,13,0.0,0.0,97,0.00,,,0.00,0,weatherlink.com 1.10,2013-04-30 09:58:00,
2013-04-30 06:13:00,64.8,64.0,29.88,NNE,13,0.0,0.0,97,0.00,,,0.00,0,weatherlink.com 1.10,2013-04-30 10:13:00,
2013-04-30 06:28:00,64.8,64.0,29.89,NNE,13,0.0,0.0,97,0.00,,,0.00,0,weatherlink.com 1.10,2013-04-30 10:28:00,
2013-04-30 06:43:00,64.8,64.0,29.89,NNE,13,0.0,0.0,97,0.00,,,0.00,0,weatherlink.com 1.10,2013-04-30 10:43:00,
2013-04-30 06:58:00,65.0,64.0,29.89,NNE,13,0.0,0.0,97,0.00,,,0.00,5,weatherlink.com 1.10,2013-04-30 10:58:00,
2013-04-30 07:14:00,65.0,64.0,29.90,NNE,13,0.0,0.0,97,0.00,,,0.00,11,weatherlink.com 1.10,2013-04-30 11:14:00,
2013-04-30 07:28:00,65.2,64.0,29.91,NNE,13,0.0,0.0,97,0.00,,,0.00,14,weatherlink.com 1.10,2013-04-30 11:28:00,
2013-04-30 07:43:00,65.3,65.0,29.91,NNE,13,0.0,0.0,97,0.00,,,0.00,32,weatherlink.com 1.10,2013-04-30 11:43:00,
2013-04-30 07:58:00,65.6,65.0,29.91,NNE,13,0.0,0.0,97,0.00,,,0.00,33,weatherlink.com 1.10,2013-04-30 11:58:00,
2013-04-30 08:15:00,66.3,66.0,29.92,NNE,13,0.0,1.0,98,0.00,,,0.00,58,weatherlink.com 1.10,2013-04-30 12:15:00,
2013-04-30 08:30:00,66.8,66.0,29.92,NNE,13,0.0,0.0,98,0.00,,,0.00,65,weatherlink.com 1.10,2013-04-30 12:30:00,
2013-04-30 08:45:00,67.1,67.0,29.92,NNE,13,0.0,0.0,98,0.00,,,0.00,84,weatherlink.com 1.10,2013-04-30 12:45:00,
2013-04-30 09:00:00,67.4,67.0,29.93,NNE,13,0.0,0.0,98,0.00,,,0.00,102,weatherlink.com 1.10,2013-04-30 13:00:00,
2013-04-30 09:15:00,67.8,67.0,29.92,NNE,13,0.0,0.0,98,0.00,,,0.00,121,weatherlink.com 1.10,2013-04-30 13:15:00,
2013-04-30 09:30:00,68.1,68.0,29.93,NNE,13,0.0,1.0,98,0.00,,,0.00,158,weatherlink.com 1.10,2013-04-30 13:30:00,
2013-04-30 09:45:00,68.6,68.0,29.93,NNE,13,0.0,1.0,98,0.00,,,0.00,163,weatherlink.com 1.10,2013-04-30 13:45:00,
2013-04-30 10:00:00,69.1,69.0,29.94,NNE,13,0.0,2.0,98,0.00,,,0.00,151,weatherlink.com 1.10,2013-04-30 14:00:00,
2013-04-30 10:15:00,70.3,70.0,29.93,NNE,13,0.0,1.0,98,0.00,,,0.00,304,weatherlink.com 1.10,2013-04-30 14:15:00,
2013-04-30 10:30:00,71.5,71.0,29.93,NW,313,0.0,2.0,98,0.00,,,0.00,700,weatherlink.com 1.10,2013-04-30 14:30:00,
2013-04-30 10:45:00,70.9,70.0,29.93,NW,320,0.0,4.0,97,0.00,,,0.00,694,weatherlink.com 1.10,2013-04-30 14:45:00,
2013-04-30 11:00:00,72.0,71.0,29.93,NW,319,0.0,1.0,96,0.00,,,0.00,729,weatherlink.com 1.10,2013-04-30 15:00:00,
2013-04-30 11:15:00,72.1,70.0,29.93,NW,322,0.0,3.0,94,0.00,,,0.00,759,weatherlink.com 1.10,2013-04-30 15:15:00,
2013-04-30 11:34:00,73.9,70.0,29.93,NW,309,2.0,4.0,88,0.00,,,0.00,803,weatherlink.com 1.10,2013-04-30 15:34:00,
2013-04-30 11:45:00,75.3,69.0,29.93,NW,313,0.0,3.0,81,0.00,,,0.00,819,weatherlink.com 1.10,2013-04-30 15:45:00,
2013-04-30 12:00:00,77.2,68.0,29.92,NW,312,0.0,1.0,73,0.00,,,0.00,849,weatherlink.com 1.10,2013-04-30 16:00:00,
2013-04-30 12:17:00,78.3,64.0,29.92,NW,308,1.0,5.0,62,0.00,,,0.00,872,weatherlink.com 1.10,2013-04-30 16:17:00,
2013-04-30 12:31:00,79.6,65.0,29.92,WSW,250,1.0,4.0,62,0.00,,,0.00,891,weatherlink.com 1.10,2013-04-30 16:31:00,
2013-04-30 12:47:00,80.5,65.0,29.91,NW,315,1.0,6.0,60,0.00,,,0.00,905,weatherlink.com 1.10,2013-04-30 16:47:00,
2013-04-30 13:02:00,80.9,65.0,29.90,West,267,0.0,6.0,59,0.00,,,0.00,912,weatherlink.com 1.10,2013-04-30 17:02:00,
2013-04-30 13:16:00,82.0,66.0,29.90,SW,227,0.0,6.0,58,0.00,,,0.00,923,weatherlink.com 1.10,2013-04-30 17:16:00,
2013-04-30 13:32:00,82.8,65.0,29.90,WSW,240,2.0,5.0,56,0.00,,,0.00,925,weatherlink.com 1.10,2013-04-30 17:32:00,
2013-04-30 13:46:00,83.6,66.0,29.90,SW,222,0.0,3.0,55,0.00,,,0.00,925,weatherlink.com 1.10,2013-04-30 17:46:00,
2013-04-30 14:01:00,84.5,66.0,29.89,WSW,248,0.0,4.0,54,0.00,,,0.00,926,weatherlink.com 1.10,2013-04-30 18:01:00,
2013-04-30 14:16:00,84.9,65.0,29.89,NW,317,0.0,6.0,52,0.00,,,0.00,997,weatherlink.com 1.10,2013-04-30 18:16:00,
2013-04-30 14:33:00,85.7,65.0,29.89,SSW,199,1.0,5.0,51,0.00,,,0.00,953,weatherlink.com 1.10,2013-04-30 18:33:00,
2013-04-30 14:46:00,86.3,66.0,29.89,WNW,290,2.0,3.0,50,0.00,,,0.00,986,weatherlink.com 1.10,2013-04-30 18:46:00,
2013-04-30 15:03:00,84.3,67.0,29.89,ESE,119,3.0,5.0,56,0.00,,,0.00,165,weatherlink.com 1.10,2013-04-30 19:03:00,
2013-04-30 15:17:00,82.4,68.0,29.89,SE,130,4.0,6.0,61,0.01,,,0.01,939,weatherlink.com 1.10,2013-04-30 19:17:00,
2013-04-30 15:34:00,81.2,67.0,29.88,ESE,117,3.0,8.0,62,0.01,,,0.01,805,weatherlink.com 1.10,2013-04-30 19:34:00,
2013-04-30 15:49:00,81.8,67.0,29.88,NE,40,3.0,8.0,61,0.01,,,0.01,747,weatherlink.com 1.10,2013-04-30 19:49:00,
2013-04-30 16:04:00,81.1,66.0,29.89,SE,132,5.0,13.0,60,0.01,,,0.01,710,weatherlink.com 1.10,2013-04-30 20:04:00,
2013-04-30 16:19:00,79.9,65.0,29.88,ESE,121,3.0,9.0,61,0.00,,,0.01,671,weatherlink.com 1.10,2013-04-30 20:19:00,
2013-04-30 16:34:00,79.0,65.0,29.88,East,90,0.0,12.0,62,0.00,,,0.01,642,weatherlink.com 1.10,2013-04-30 20:34:00,
2013-04-30 16:49:00,77.7,64.0,29.89,SE,127,4.0,8.0,63,0.00,,,0.01,142,weatherlink.com 1.10,2013-04-30 20:49:00,
2013-04-30 17:04:00,76.3,64.0,29.89,ENE,76,0.0,16.0,66,0.00,,,0.01,559,weatherlink.com 1.10,2013-04-30 21:04:00,
2013-04-30 17:19:00,77.0,65.0,29.89,NW,324,2.0,10.0,66,0.00,,,0.01,483,weatherlink.com 1.10,2013-04-30 21:19:00,
2013-04-30 17:33:00,77.0,65.0,29.89,SE,135,0.0,11.0,67,0.00,,,0.01,431,weatherlink.com 1.10,2013-04-30 21:33:00,
2013-04-30 17:49:00,76.3,65.0,29.89,East,98,5.0,11.0,67,0.00,,,0.01,353,weatherlink.com 1.10,2013-04-30 21:49:00,
2013-04-30 18:04:00,75.8,64.0,29.90,ESE,107,0.0,9.0,68,0.00,,,0.01,311,weatherlink.com 1.10,2013-04-30 22:04:00,
2013-04-30 18:18:00,75.3,64.0,29.90,East,85,0.0,9.0,69,0.00,,,0.01,255,weatherlink.com 1.10,2013-04-30 22:18:00,
2013-04-30 18:34:00,74.7,64.0,29.90,East,101,0.0,8.0,69,0.00,,,0.01,181,weatherlink.com 1.10,2013-04-30 22:34:00,
2013-04-30 18:49:00,74.2,63.0,29.90,ESE,119,2.0,6.0,69,0.00,,,0.01,98,weatherlink.com 1.10,2013-04-30 22:49:00,
2013-04-30 19:04:00,73.7,63.0,29.90,NNE,23,0.0,7.0,70,0.00,,,0.01,62,weatherlink.com 1.10,2013-04-30 23:04:00,
2013-04-30 19:19:00,73.0,63.0,29.90,SE,124,7.0,9.0,71,0.00,,,0.01,44,weatherlink.com 1.10,2013-04-30 23:19:00,
2013-04-30 19:34:00,72.5,63.0,29.92,ESE,121,3.0,6.0,73,0.00,,,0.01,26,weatherlink.com 1.10,2013-04-30 23:34:00,
2013-04-30 19:49:00,71.8,64.0,29.93,SE,134,0.0,5.0,75,0.00,,,0.01,11,weatherlink.com 1.10,2013-04-30 23:49:00,
2013-04-30 20:04:00,71.3,64.0,29.93,ESE,102,0.0,7.0,77,0.00,,,0.01,0,weatherlink.com 1.10,2013-05-01 00:04:00,
2013-04-30 20:19:00,70.9,64.0,29.93,ENE,73,0.0,3.0,79,0.00,,,0.01,0,weatherlink.com 1.10,2013-05-01 00:19:00,
2013-04-30 20:34:00,70.6,64.0,29.93,NE,39,0.0,5.0,80,0.00,,,0.01,0,weatherlink.com 1.10,2013-05-01 00:34:00,
2013-04-30 20:49:00,70.4,64.0,29.95,ENE,61,0.0,3.0,81,0.00,,,0.01,0,weatherlink.com 1.10,2013-05-01 00:49:00,
2013-04-30 21:04:00,70.1,64.0,29.95,ENE,61,0.0,1.0,82,0.00,,,0.01,0,weatherlink.com 1.10,2013-05-01 01:04:00,
2013-04-30 21:19:00,69.8,64.0,29.96,ENE,61,0.0,0.0,82,0.00,,,0.01,0,weatherlink.com 1.10,2013-05-01 01:19:00,
2013-04-30 21:34:00,69.4,64.0,29.96,ENE,61,0.0,0.0,83,0.00,,,0.01,0,weatherlink.com 1.10,2013-05-01 01:34:00,
2013-04-30 21:49:00,69.1,64.0,29.95,ENE,61,0.0,1.0,84,0.00,,,0.01,0,weatherlink.com 1.10,2013-05-01 01:49:00,
2013-04-30 22:06:00,69.1,65.0,29.96,ENE,61,0.0,1.0,85,0.00,,,0.01,0,weatherlink.com 1.10,2013-05-01 02:06:00,
2013-04-30 22:20:00,68.9,65.0,29.96,ENE,61,0.0,1.0,86,0.00,,,0.01,0,weatherlink.com 1.10,2013-05-01 02:20:00,
2013-04-30 22:36:00,68.6,64.0,29.96,ENE,61,1.0,1.0,86,0.00,,,0.01,0,weatherlink.com 1.10,2013-05-01 02:36:00,
2013-04-30 22:51:00,68.4,64.0,29.96,ENE,61,0.0,2.0,87,0.00,,,0.01,0,weatherlink.com 1.10,2013-05-01 02:51:00,
2013-04-30 23:06:00,68.3,64.0,29.96,ENE,61,0.0,0.0,87,0.00,,,0.01,0,weatherlink.com 1.10,2013-05-01 03:06:00,
2013-04-30 23:20:00,68.1,64.0,29.96,ENE,61,0.0,0.0,87,0.00,,,0.01,0,weatherlink.com 1.10,2013-05-01 03:20:00,
2013-04-30 23:36:00,67.6,64.0,29.96,ENE,61,0.0,0.0,87,0.00,,,0.01,0,weatherlink.com 1.10,2013-05-01 03:36:00,
2013-04-30 23:50:00,67.1,63.0,29.96,ENE,61,0.0,0.0,87,0.00,,,0.01,0,weatherlink.com 1.10,2013-05-01 03:50:00,